createdAt,value
2018-02-14T00:00:51.046Z,-2.61
2018-02-14T00:03:19.408Z,-2.60
2018-02-14T00:05:47.725Z,-2.65
2018-02-14T00:08:16.821Z,-2.69
2018-02-14T00:10:45.929Z,-2.74
2018-02-14T00:13:14.289Z,-2.83
2018-02-14T00:15:42.640Z,-2.89
2018-02-14T00:18:10.991Z,-2.97
2018-02-14T00:20:39.313Z,-3.03
2018-02-14T00:23:07.694Z,-3.10
2018-02-14T00:25:36.014Z,-3.15
2018-02-14T00:28:04.446Z,-3.20
2018-02-14T00:30:32.757Z,-3.24
2018-02-14T00:33:01.122Z,-3.27
2018-02-14T00:35:30.220Z,-3.23
2018-02-14T00:37:59.341Z,-3.18
2018-02-14T00:40:27.707Z,-3.11
2018-02-14T00:42:56.044Z,-3.09
2018-02-14T00:45:24.349Z,-3.08
2018-02-14T00:47:52.669Z,-3.12
2018-02-14T00:50:21.037Z,-3.08
2018-02-14T00:52:49.799Z,-3.08
2018-02-14T00:55:18.140Z,-3.19
2018-02-14T00:57:46.481Z,-3.16
2018-02-14T01:00:14.839Z,-3.25
2018-02-14T01:02:43.150Z,-3.25
2018-02-14T01:05:11.521Z,-3.21
2018-02-14T01:07:39.849Z,-3.19
2018-02-14T01:10:08.197Z,-3.08
2018-02-14T01:12:36.547Z,-2.95
2018-02-14T01:15:04.869Z,-3.00
2018-02-14T01:17:33.968Z,-2.95
2018-02-14T01:20:09.133Z,-3.01
2018-02-14T01:22:37.447Z,-3.09
2018-02-14T01:25:05.770Z,-3.10
2018-02-14T01:27:34.896Z,-3.22
2018-02-14T01:30:03.245Z,-3.31
2018-02-14T01:32:32.341Z,-3.36
2018-02-14T01:35:01.465Z,-3.37
2018-02-14T01:37:29.827Z,-3.34
2018-02-14T01:39:58.140Z,-3.35
2018-02-14T01:42:26.451Z,-3.32
2018-02-14T01:44:54.829Z,-3.29
2018-02-14T01:47:23.917Z,-3.36
2018-02-14T01:49:52.258Z,-3.46
2018-02-14T01:52:20.737Z,-3.55
2018-02-14T01:54:49.069Z,-3.62
2018-02-14T01:57:17.396Z,-3.70
2018-02-14T01:59:45.765Z,-3.76
2018-02-14T02:02:14.096Z,-3.80
2018-02-14T02:04:42.446Z,-3.89
2018-02-14T02:07:11.162Z,-3.74
2018-02-14T02:09:40.296Z,-3.63
2018-02-14T02:12:08.625Z,-3.44
2018-02-14T02:14:36.976Z,-3.50
2018-02-14T02:17:05.327Z,-3.34
2018-02-14T02:19:33.668Z,-3.31
2018-02-14T02:22:02.015Z,-3.35
2018-02-14T02:24:30.362Z,-3.36
2018-02-14T02:26:58.736Z,-3.35
2018-02-14T02:29:27.085Z,-3.36
2018-02-14T02:31:55.488Z,-3.47
2018-02-14T02:34:23.828Z,-3.49
2018-02-14T02:36:52.185Z,-3.48
2018-02-14T02:39:38.077Z,-3.50
2018-02-14T02:42:06.408Z,-3.57
2018-02-14T02:44:34.797Z,-3.40
2018-02-14T02:47:03.166Z,-3.48
2018-02-14T02:49:31.485Z,-3.52
2018-02-14T02:51:59.856Z,-3.44
2018-02-14T02:54:28.174Z,-3.36
2018-02-14T02:56:57.304Z,-3.38
2018-02-14T02:59:27.144Z,-3.40
2018-02-14T03:01:55.504Z,-3.47
2018-02-14T03:04:24.220Z,-3.44
2018-02-14T03:06:52.568Z,-3.45
2018-02-14T03:09:20.964Z,-3.58
2018-02-14T03:11:49.320Z,-3.66
2018-02-14T03:14:17.655Z,-3.67
2018-02-14T03:16:46.784Z,-3.56
2018-02-14T03:19:15.151Z,-3.50
2018-02-14T03:21:43.492Z,-3.48
2018-02-14T03:24:11.842Z,-3.44
2018-02-14T03:26:40.184Z,-3.42
2018-02-14T03:29:08.556Z,-3.39
2018-02-14T03:31:36.888Z,-3.37
2018-02-14T03:34:05.239Z,-3.46
2018-02-14T03:36:33.595Z,-3.32
2018-02-14T03:39:01.914Z,-3.38
2018-02-14T03:41:30.272Z,-3.47
2018-02-14T03:43:58.593Z,-3.57
2018-02-14T03:46:27.724Z,-3.67
2018-02-14T03:48:56.038Z,-3.60
2018-02-14T03:51:24.392Z,-3.50
2018-02-14T03:53:52.698Z,-3.48
2018-02-14T03:56:21.060Z,-3.60
2018-02-14T03:58:49.384Z,-3.64
2018-02-14T04:01:19.070Z,-3.53
2018-02-14T04:03:48.184Z,-3.51
2018-02-14T04:06:17.305Z,-3.53
2018-02-14T04:08:45.646Z,-3.67
2018-02-14T04:11:13.978Z,-3.79
2018-02-14T04:13:42.341Z,-3.81
2018-02-14T04:16:10.672Z,-3.61
2018-02-14T04:18:39.043Z,-3.49
2018-02-14T04:21:07.396Z,-3.50
2018-02-14T04:23:35.720Z,-3.54
2018-02-14T04:26:04.855Z,-3.48
2018-02-14T04:28:33.227Z,-3.46
2018-02-14T04:31:01.538Z,-3.48
2018-02-14T04:33:29.871Z,-3.51
2018-02-14T04:35:58.243Z,-3.65
2018-02-14T04:38:27.343Z,-3.59
2018-02-14T04:40:55.676Z,-3.64
2018-02-14T04:43:24.039Z,-3.65
2018-02-14T04:45:52.382Z,-3.76
2018-02-14T04:48:21.509Z,-3.75
2018-02-14T04:50:49.871Z,-3.86
2018-02-14T04:53:18.256Z,-3.89
2018-02-14T04:55:46.590Z,-3.87
2018-02-14T04:58:15.703Z,-3.86
2018-02-14T05:00:44.059Z,-3.87
2018-02-14T05:03:13.206Z,-3.90
2018-02-14T05:05:41.517Z,-3.91
2018-02-14T05:08:09.877Z,-3.94
2018-02-14T05:10:38.284Z,-4.03
2018-02-14T05:13:07.417Z,-3.88
2018-02-14T05:15:35.784Z,-3.89
2018-02-14T05:18:04.123Z,-3.90
2018-02-14T05:20:32.484Z,-3.96
2018-02-14T05:23:00.819Z,-4.07
2018-02-14T05:25:29.165Z,-3.91
2018-02-14T05:27:57.491Z,-3.92
2018-02-14T05:30:25.859Z,-3.98
2018-02-14T05:32:54.177Z,-3.90
2018-02-14T05:35:22.505Z,-3.91
2018-02-14T05:37:50.883Z,-4.02
2018-02-14T05:40:19.628Z,-4.18
2018-02-14T05:42:48.023Z,-4.22
2018-02-14T05:45:16.356Z,-4.24
2018-02-14T05:47:44.687Z,-4.15
2018-02-14T05:50:13.039Z,-4.19
2018-02-14T05:52:41.385Z,-4.20
2018-02-14T05:55:09.757Z,-4.12
2018-02-14T05:57:38.126Z,-4.10
2018-02-14T06:00:06.459Z,-4.06
2018-02-14T06:02:35.594Z,-4.15
2018-02-14T06:05:03.971Z,-4.17
2018-02-14T06:07:32.371Z,-4.18
2018-02-14T06:10:01.539Z,-4.08
2018-02-14T06:12:29.903Z,-4.01
2018-02-14T06:14:58.247Z,-4.13
2018-02-14T06:17:26.623Z,-4.09
2018-02-14T06:19:54.957Z,-4.09
2018-02-14T06:22:23.301Z,-3.92
2018-02-14T06:24:52.391Z,-3.95
2018-02-14T06:27:21.511Z,-4.03
2018-02-14T06:29:50.103Z,-4.05
2018-02-14T06:32:18.514Z,-3.96
2018-02-14T06:34:46.906Z,-3.76
2018-02-14T06:37:15.238Z,-3.84
2018-02-14T06:39:43.599Z,-3.77
2018-02-14T06:42:12.722Z,-3.73
2018-02-14T06:44:41.040Z,-3.66
2018-02-14T06:47:09.395Z,-3.59
2018-02-14T06:49:38.113Z,-3.58
2018-02-14T06:52:08.287Z,-3.55
2018-02-14T06:54:36.618Z,-3.51
2018-02-14T06:57:05.759Z,-3.47
2018-02-14T06:59:34.085Z,-3.43
2018-02-14T07:02:02.462Z,-3.39
2018-02-14T07:04:30.789Z,-3.33
2018-02-14T07:06:59.167Z,-3.27
2018-02-14T07:09:27.506Z,-3.24
2018-02-14T07:11:56.610Z,-3.19
2018-02-14T07:14:25.730Z,-3.12
2018-02-14T07:16:54.051Z,-3.06
2018-02-14T07:19:22.414Z,-3.02
2018-02-14T07:21:50.761Z,-2.94
2018-02-14T07:24:19.080Z,-2.91
2018-02-14T07:26:47.432Z,-2.93
2018-02-14T07:29:15.790Z,-3.09
2018-02-14T07:31:44.511Z,-2.85
2018-02-14T07:34:12.876Z,-2.80
2018-02-14T07:36:41.228Z,-2.70
2018-02-14T07:39:09.550Z,-2.82
2018-02-14T07:41:37.922Z,-2.69
2018-02-14T07:44:06.254Z,-2.56
2018-02-14T07:46:34.638Z,-2.49
2018-02-14T07:49:02.970Z,-2.49
2018-02-14T07:51:31.302Z,-2.56
2018-02-14T07:53:59.661Z,-2.40
2018-02-14T07:56:27.993Z,-2.27
2018-02-14T07:58:56.356Z,-2.18
2018-02-14T08:01:24.712Z,-2.14
2018-02-14T08:03:53.104Z,-2.27
2018-02-14T08:06:21.472Z,-2.22
2018-02-14T08:08:49.807Z,-2.04
2018-02-14T08:11:18.940Z,-1.84
2018-02-14T08:13:47.253Z,-1.73
2018-02-14T08:16:15.622Z,-1.60
2018-02-14T08:18:43.970Z,-1.54
2018-02-14T08:21:12.290Z,-1.42
2018-02-14T08:23:40.653Z,-1.33
2018-02-14T08:26:09.014Z,-1.28
2018-02-14T08:28:37.354Z,-1.36
2018-02-14T08:31:06.454Z,-1.29
2018-02-14T08:33:34.790Z,-1.19
2018-02-14T08:36:03.150Z,-1.16
2018-02-14T08:38:31.478Z,-1.04
2018-02-14T08:41:00.582Z,-0.84
2018-02-14T08:43:29.716Z,-0.76
2018-02-14T08:45:58.086Z,-0.69
2018-02-14T08:48:26.435Z,-0.59
2018-02-14T08:50:54.780Z,-0.44
2018-02-14T08:53:23.136Z,-0.33
2018-02-14T08:55:51.466Z,-0.36
2018-02-14T08:58:20.580Z,-0.41
2018-02-14T09:00:49.679Z,-0.36
2018-02-14T09:03:18.045Z,-0.32
2018-02-14T09:05:46.424Z,-0.20
2018-02-14T09:08:14.752Z,-0.20
2018-02-14T09:10:43.110Z,-0.11
2018-02-14T09:13:11.481Z,-0.10
2018-02-14T09:15:39.792Z,-0.08
2018-02-14T09:18:08.134Z,0.01
2018-02-14T09:20:36.850Z,0.13
2018-02-14T09:23:05.193Z,0.22
2018-02-14T09:25:33.549Z,0.19
2018-02-14T09:28:01.883Z,0.18
2018-02-14T09:30:30.251Z,0.23
2018-02-14T09:32:58.579Z,0.40
2018-02-14T09:35:26.890Z,0.42
2018-02-14T09:37:55.253Z,0.41
2018-02-14T09:40:23.603Z,0.65
2018-02-14T09:42:52.688Z,0.69
2018-02-14T09:45:21.824Z,0.78
2018-02-14T09:47:50.213Z,0.90
2018-02-14T09:50:18.568Z,0.94
2018-02-14T09:52:46.923Z,1.07
2018-02-14T09:55:15.999Z,1.03
2018-02-14T09:57:44.428Z,1.04
2018-02-14T10:00:12.818Z,1.06
2018-02-14T10:02:41.905Z,1.15
2018-02-14T10:05:10.246Z,1.31
2018-02-14T10:07:38.590Z,1.32
2018-02-14T10:10:06.912Z,1.35
2018-02-14T10:12:35.249Z,1.46
2018-02-14T10:15:03.584Z,1.46
2018-02-14T10:17:32.705Z,1.66
2018-02-14T10:20:01.051Z,1.68
2018-02-14T10:22:29.369Z,1.70
2018-02-14T10:24:57.728Z,1.74
2018-02-14T10:27:26.035Z,1.88
2018-02-14T10:29:54.366Z,1.78
2018-02-14T10:32:22.716Z,1.86
2018-02-14T10:34:51.800Z,1.94
2018-02-14T10:37:20.919Z,1.94
2018-02-14T10:39:49.336Z,1.99
2018-02-14T10:42:17.673Z,2.03
2018-02-14T10:44:46.032Z,2.16
2018-02-14T10:47:15.147Z,2.19
2018-02-14T10:49:43.483Z,2.21
2018-02-14T10:52:11.916Z,2.21
2018-02-14T10:54:40.244Z,2.31
2018-02-14T10:57:09.318Z,2.22
2018-02-14T10:59:37.666Z,2.26
2018-02-14T11:02:10.938Z,2.35
2018-02-14T11:04:45.400Z,2.50
2018-02-14T11:07:19.594Z,2.67
2018-02-14T11:09:48.697Z,2.55
2018-02-14T11:12:17.049Z,2.50
2018-02-14T11:14:45.374Z,2.53
2018-02-14T11:17:13.730Z,2.64
2018-02-14T11:19:42.076Z,2.65
2018-02-14T11:22:10.452Z,2.78
2018-02-14T11:24:38.851Z,2.78
2018-02-14T11:27:07.168Z,2.79
2018-02-14T11:29:35.540Z,2.84
2018-02-14T11:32:03.872Z,2.90
2018-02-14T11:34:33.254Z,2.92
2018-02-14T11:37:01.316Z,3.04
2018-02-14T11:39:30.408Z,3.15
2018-02-14T11:41:58.748Z,3.29
2018-02-14T11:44:27.072Z,3.38
2018-02-14T11:46:55.394Z,3.30
2018-02-14T11:49:23.765Z,3.19
2018-02-14T11:51:52.837Z,3.35
2018-02-14T11:54:21.200Z,3.36
2018-02-14T11:56:49.559Z,3.55
2018-02-14T11:59:17.879Z,3.76
2018-02-14T12:01:46.228Z,3.74
2018-02-14T12:04:14.976Z,3.40
2018-02-14T12:06:43.341Z,3.46
2018-02-14T12:09:11.665Z,3.53
2018-02-14T12:11:39.971Z,3.76
2018-02-14T12:14:09.090Z,3.90
2018-02-14T12:16:37.411Z,3.68
2018-02-14T12:19:05.728Z,3.75
2018-02-14T12:21:34.849Z,4.11
2018-02-14T12:24:03.184Z,4.21
2018-02-14T12:26:32.315Z,4.19
2018-02-14T12:29:00.637Z,4.08
2018-02-14T12:31:28.992Z,4.15
2018-02-14T12:33:57.348Z,4.31
2018-02-14T12:36:25.672Z,4.21
2018-02-14T12:38:54.031Z,3.92
2018-02-14T12:41:22.346Z,3.81
2018-02-14T12:43:51.469Z,3.76
2018-02-14T12:46:19.849Z,3.84
2018-02-14T12:48:48.201Z,3.96
2018-02-14T12:51:16.525Z,3.82
2018-02-14T12:53:44.889Z,3.86
2018-02-14T12:56:13.203Z,4.11
2018-02-14T12:58:41.549Z,3.91
2018-02-14T13:01:10.473Z,3.86
2018-02-14T13:03:38.822Z,4.04
2018-02-14T13:06:07.177Z,4.15
2018-02-14T13:08:35.499Z,4.51
2018-02-14T13:11:03.850Z,4.48
2018-02-14T13:13:32.183Z,4.20
2018-02-14T13:16:01.320Z,4.23
2018-02-14T13:18:29.656Z,4.22
2018-02-14T13:20:58.737Z,4.29
2018-02-14T13:23:27.945Z,4.10
2018-02-14T13:25:57.074Z,3.93
2018-02-14T13:28:25.415Z,3.92
2018-02-14T13:30:53.827Z,3.89
2018-02-14T13:33:22.143Z,3.79
2018-02-14T13:35:50.459Z,3.73
2018-02-14T13:38:19.565Z,3.90
2018-02-14T13:40:47.894Z,4.16
2018-02-14T13:43:16.259Z,3.96
2018-02-14T13:45:44.582Z,3.92
2018-02-14T13:48:13.699Z,4.02
2018-02-14T13:50:42.005Z,4.02
2018-02-14T13:53:10.319Z,4.08
2018-02-14T13:55:39.522Z,4.27
2018-02-14T13:58:08.631Z,4.25
2018-02-14T14:00:37.730Z,4.11
2018-02-14T14:03:06.090Z,4.09
2018-02-14T14:05:35.175Z,4.02
2018-02-14T14:08:03.507Z,3.98
2018-02-14T14:10:32.641Z,3.95
2018-02-14T14:13:00.938Z,4.01
2018-02-14T14:15:30.052Z,4.00
2018-02-14T14:17:58.371Z,3.88
2018-02-14T14:20:26.727Z,3.86
2018-02-14T14:22:55.055Z,3.83
2018-02-14T14:25:24.179Z,3.88
2018-02-14T14:27:52.481Z,3.86
2018-02-14T14:30:20.804Z,3.92
2018-02-14T14:32:49.914Z,4.06
2018-02-14T14:35:18.994Z,4.07
2018-02-14T14:37:48.114Z,4.04
2018-02-14T14:40:16.449Z,3.80
2018-02-14T14:42:45.592Z,3.79
2018-02-14T14:45:13.958Z,3.78
2018-02-14T14:47:43.083Z,3.70
2018-02-14T14:50:11.429Z,3.68
2018-02-14T14:52:40.632Z,3.59
2018-02-14T14:55:08.949Z,3.51
2018-02-14T14:57:37.263Z,3.51
2018-02-14T15:00:05.618Z,3.41
2018-02-14T15:02:33.931Z,3.34
2018-02-14T15:05:03.039Z,3.29
2018-02-14T15:07:31.399Z,3.28
2018-02-14T15:09:59.746Z,3.21
2018-02-14T15:12:28.090Z,3.17
2018-02-14T15:14:56.442Z,3.16
2018-02-14T15:17:24.824Z,3.14
2018-02-14T15:19:53.137Z,3.10
2018-02-14T15:22:21.502Z,3.02
2018-02-14T15:24:49.854Z,2.95
2018-02-14T15:27:18.986Z,2.85
2018-02-14T15:29:47.387Z,2.87
2018-02-14T15:32:15.719Z,2.93
2018-02-14T15:34:44.071Z,2.77
2018-02-14T15:37:13.168Z,2.71
2018-02-14T15:39:41.540Z,2.61
2018-02-14T15:42:09.865Z,2.55
2018-02-14T15:44:38.182Z,2.42
2018-02-14T15:47:06.548Z,2.44
2018-02-14T15:49:34.872Z,2.38
2018-02-14T15:52:03.230Z,2.33
2018-02-14T15:54:31.558Z,2.23
2018-02-14T15:56:59.931Z,2.09
2018-02-14T15:59:28.279Z,1.95
2018-02-14T16:01:56.627Z,1.82
2018-02-14T16:04:24.954Z,1.87
2018-02-14T16:06:53.313Z,1.73
2018-02-14T16:09:21.690Z,1.67
2018-02-14T16:11:50.016Z,1.58
2018-02-14T16:14:18.342Z,1.62
2018-02-14T16:16:47.206Z,1.51
2018-02-14T16:19:16.651Z,1.56
2018-02-14T16:21:45.028Z,1.51
2018-02-14T16:24:13.378Z,1.30
2018-02-14T16:26:41.738Z,1.40
2018-02-14T16:29:10.223Z,1.18
2018-02-14T16:31:38.625Z,1.13
2018-02-14T16:34:07.038Z,1.13
2018-02-14T16:36:35.852Z,1.13
2018-02-14T16:39:04.271Z,1.13
2018-02-14T16:41:33.058Z,1.02
2018-02-14T16:44:01.472Z,1.07
2018-02-14T16:46:29.818Z,1.05
2018-02-14T16:48:58.230Z,0.89
2018-02-14T16:51:26.626Z,0.83
2018-02-14T16:53:55.042Z,0.95
2018-02-14T16:56:24.973Z,0.85
2018-02-14T16:58:53.350Z,0.82
2018-02-14T17:01:22.259Z,0.82
2018-02-14T17:03:50.610Z,0.66
2018-02-14T17:06:19.039Z,0.62
2018-02-14T17:08:47.445Z,0.65
2018-02-14T17:11:16.671Z,0.69
2018-02-14T17:13:45.069Z,0.59
2018-02-14T17:16:13.483Z,0.52
2018-02-14T17:18:42.428Z,0.43
2018-02-14T17:21:12.028Z,0.33
2018-02-14T17:23:40.560Z,0.23
2018-02-14T17:26:10.331Z,0.18
2018-02-14T17:28:39.219Z,0.03
2018-02-14T17:31:07.574Z,-0.04
2018-02-14T17:33:36.791Z,-0.07
2018-02-14T17:36:05.167Z,-0.18
2018-02-14T17:38:33.524Z,-0.25
2018-02-14T17:41:02.648Z,-0.28
2018-02-14T17:43:31.480Z,-0.29
2018-02-14T17:45:59.873Z,-0.36
2018-02-14T17:48:28.570Z,-0.33
2018-02-14T17:50:57.837Z,-0.45
2018-02-14T17:53:35.241Z,-0.56
2018-02-14T17:56:04.889Z,-0.60
2018-02-14T17:58:33.414Z,-0.62
2018-02-14T18:01:03.013Z,-0.73
2018-02-14T18:03:31.409Z,-0.76
2018-02-14T18:06:00.551Z,-0.89
2018-02-14T18:08:29.319Z,-0.95
2018-02-14T18:10:58.449Z,-0.95
2018-02-14T18:13:26.795Z,-0.90
2018-02-14T18:15:55.918Z,-1.06
2018-02-14T18:18:24.245Z,-1.11
2018-02-14T18:20:52.655Z,-1.16
2018-02-14T18:23:21.765Z,-1.18
2018-02-14T18:25:50.103Z,-1.19
2018-02-14T18:28:18.488Z,-1.27
2018-02-14T18:30:46.821Z,-1.28
2018-02-14T18:33:15.190Z,-1.27
2018-02-14T18:35:43.925Z,-1.24
2018-02-14T18:38:12.381Z,-1.27
2018-02-14T18:40:40.727Z,-1.28
2018-02-14T18:43:09.858Z,-1.27
2018-02-14T18:45:38.213Z,-1.19
2018-02-14T18:48:06.539Z,-1.17
2018-02-14T18:50:34.903Z,-1.28
2018-02-14T18:53:03.250Z,-1.27
2018-02-14T18:55:31.852Z,-1.31
2018-02-14T18:58:00.190Z,-1.28
2018-02-14T19:00:28.561Z,-1.26
2018-02-14T19:02:56.992Z,-1.18
2018-02-14T19:05:25.369Z,-1.13
2018-02-14T19:07:53.739Z,-1.05
2018-02-14T19:10:22.126Z,-1.19
2018-02-14T19:12:50.496Z,-1.17
2018-02-14T19:15:18.840Z,-1.12
2018-02-14T19:17:47.281Z,-1.23
2018-02-14T19:20:15.633Z,-1.26
2018-02-14T19:22:43.992Z,-1.36
2018-02-14T19:25:12.362Z,-1.29
2018-02-14T19:27:40.809Z,-1.33
2018-02-14T19:30:10.018Z,-1.27
2018-02-14T19:32:38.424Z,-1.22
2018-02-14T19:35:07.554Z,-1.24
2018-02-14T19:37:35.894Z,-1.14
2018-02-14T19:40:04.679Z,-1.04
2018-02-14T19:42:33.052Z,-0.81
2018-02-14T19:45:02.186Z,-0.61
2018-02-14T19:47:30.511Z,-0.59
2018-02-14T19:49:58.896Z,-0.50
2018-02-14T19:52:27.236Z,-0.49
2018-02-14T19:54:56.706Z,-0.51
2018-02-14T19:57:25.080Z,-0.51
2018-02-14T19:59:53.481Z,-0.65
2018-02-14T20:02:22.210Z,-0.53
2018-02-14T20:04:50.592Z,-0.40
2018-02-14T20:07:19.606Z,-0.50
2018-02-14T20:09:47.926Z,-0.53
2018-02-14T20:12:17.074Z,-0.69
2018-02-14T20:14:45.512Z,-0.62
2018-02-14T20:17:14.620Z,-0.57
2018-02-14T20:19:43.736Z,-0.72
2018-02-14T20:22:12.168Z,-0.75
2018-02-14T20:24:40.514Z,-0.57
2018-02-14T20:27:08.919Z,-0.46
2018-02-14T20:29:38.056Z,-0.51
2018-02-14T20:32:06.387Z,-0.44
2018-02-14T20:34:34.760Z,-0.50
2018-02-14T20:37:03.110Z,-0.43
2018-02-14T20:39:31.957Z,-0.44
2018-02-14T20:42:01.047Z,-0.58
2018-02-14T20:44:29.928Z,-0.49
2018-02-14T20:46:59.038Z,-0.40
2018-02-14T20:49:27.674Z,-0.44
2018-02-14T20:51:56.564Z,-0.47
2018-02-14T20:54:25.159Z,-0.50
2018-02-14T20:56:54.479Z,-0.55
2018-02-14T20:59:23.582Z,-0.71
2018-02-14T21:01:51.928Z,-0.96
2018-02-14T21:04:21.967Z,-0.98
2018-02-14T21:06:50.824Z,-1.20
2018-02-14T21:09:20.016Z,-1.22
2018-02-14T21:11:48.376Z,-0.99
2018-02-14T21:14:16.708Z,-0.88
2018-02-14T21:16:45.164Z,-0.89
2018-02-14T21:19:13.486Z,-1.18
2018-02-14T21:21:43.188Z,-1.06
2018-02-14T21:24:11.550Z,-0.99
2018-02-14T21:26:39.933Z,-0.84
2018-02-14T21:29:08.311Z,-0.80
2018-02-14T21:31:36.841Z,-0.82
2018-02-14T21:34:06.503Z,-0.97
2018-02-14T21:36:34.951Z,-1.10
2018-02-14T21:39:03.289Z,-1.25
2018-02-14T21:41:31.673Z,-1.23
2018-02-14T21:44:00.023Z,-1.31
2018-02-14T21:46:28.783Z,-1.19
2018-02-14T21:48:57.520Z,-1.00
2018-02-14T21:51:27.246Z,-0.99
2018-02-14T21:53:55.695Z,-1.06
2018-02-14T21:56:25.749Z,-0.82
2018-02-14T21:58:54.107Z,-0.73
2018-02-14T22:01:22.479Z,-0.67
2018-02-14T22:03:51.598Z,-0.79
2018-02-14T22:06:21.121Z,-0.77
2018-02-14T22:08:49.453Z,-0.68
2018-02-14T22:11:18.544Z,-0.67
2018-02-14T22:13:47.767Z,-0.84
2018-02-14T22:16:16.119Z,-0.75
2018-02-14T22:18:44.435Z,-0.70
2018-02-14T22:21:12.817Z,-0.67
2018-02-14T22:23:41.599Z,-0.68
2018-02-14T22:26:10.681Z,-0.93
2018-02-14T22:28:39.058Z,-0.93
2018-02-14T22:31:07.392Z,-0.99
2018-02-14T22:33:36.648Z,-1.00
2018-02-14T22:36:04.966Z,-1.16
2018-02-14T22:38:33.405Z,-1.29
2018-02-14T22:41:01.721Z,-1.14
2018-02-14T22:43:30.112Z,-1.13
2018-02-14T22:45:58.461Z,-0.96
2018-02-14T22:48:26.798Z,-1.08
2018-02-14T22:50:55.160Z,-1.30
2018-02-14T22:53:24.331Z,-1.41
2018-02-14T22:55:52.648Z,-1.48
2018-02-14T22:58:21.026Z,-1.37
2018-02-14T23:00:49.411Z,-1.44
2018-02-14T23:03:17.748Z,-1.28
2018-02-14T23:05:46.136Z,-1.10
2018-02-14T23:08:14.454Z,-1.00
2018-02-14T23:10:42.800Z,-0.91
2018-02-14T23:13:11.933Z,-0.91
2018-02-14T23:15:40.287Z,-0.84
2018-02-14T23:18:08.652Z,-0.90
2018-02-14T23:20:37.758Z,-0.88
2018-02-14T23:23:06.891Z,-0.93
2018-02-14T23:25:35.223Z,-0.91
2018-02-14T23:28:04.366Z,-0.90
2018-02-14T23:30:32.686Z,-0.94
2018-02-14T23:33:01.786Z,-1.15
2018-02-14T23:35:30.916Z,-1.47
2018-02-14T23:37:59.290Z,-1.27
2018-02-14T23:40:27.622Z,-1.18
2018-02-14T23:42:55.962Z,-1.48
2018-02-14T23:45:24.326Z,-1.62
2018-02-14T23:47:52.645Z,-1.43
2018-02-14T23:50:21.778Z,-1.33
2018-02-14T23:52:50.362Z,-1.46
2018-02-14T23:55:19.606Z,-1.58
2018-02-14T23:57:47.948Z,-1.60
